createdAt,value
2022-11-10T00:01:38.071Z,101454.97
2022-11-10T00:04:10.608Z,101461.13
2022-11-10T00:06:44.604Z,101470.84
2022-11-10T00:09:17.362Z,101465.50
2022-11-10T00:11:49.984Z,101472.59
2022-11-10T00:14:41.293Z,101475.19
2022-11-10T00:17:13.757Z,101463.78
2022-11-10T00:19:46.285Z,101477.88
2022-11-10T00:22:18.786Z,101475.28
2022-11-10T00:24:51.300Z,101462.03
2022-11-10T00:27:23.830Z,101467.38
2022-11-10T00:29:56.322Z,101472.63
2022-11-10T00:32:28.801Z,101477.94
2022-11-10T00:35:01.377Z,101480.63
2022-11-10T00:37:34.361Z,101480.59
2022-11-10T00:40:07.426Z,101490.28
2022-11-10T00:42:39.902Z,101499.97
2022-11-10T00:45:12.705Z,101497.31
2022-11-10T00:47:46.518Z,101499.97
2022-11-10T00:50:19.038Z,101507.91
2022-11-10T00:52:51.544Z,101507.00
2022-11-10T00:55:24.134Z,101507.94
2022-11-10T00:57:56.708Z,101504.41
2022-11-10T01:00:29.231Z,101505.28
2022-11-10T01:03:02.623Z,101494.72
2022-11-10T01:05:38.491Z,101500.00
2022-11-10T01:08:11.563Z,101505.31
2022-11-10T01:10:44.073Z,101505.28
2022-11-10T01:13:16.626Z,101507.94
2022-11-10T01:15:49.133Z,101504.41
2022-11-10T01:18:21.692Z,101499.13
2022-11-10T01:20:54.179Z,101504.44
2022-11-10T01:23:27.416Z,101522.94
2022-11-10T01:26:05.241Z,101530.00
2022-11-10T01:28:38.341Z,101528.22
2022-11-10T01:31:14.849Z,101538.78
2022-11-10T01:33:47.420Z,101542.31
2022-11-10T01:36:19.913Z,101547.59
2022-11-10T01:38:52.361Z,101537.03
2022-11-10T01:41:24.884Z,101546.72
2022-11-10T01:44:16.214Z,101551.06
2022-11-10T01:46:48.773Z,101552.00
2022-11-10T01:49:27.115Z,101552.00
2022-11-10T01:52:15.077Z,101550.25
2022-11-10T01:54:49.815Z,101548.50
2022-11-10T01:57:22.476Z,101539.63
2022-11-10T01:59:55.101Z,101550.22
2022-11-10T02:02:42.625Z,101545.78
2022-11-10T02:05:15.743Z,101535.28
2022-11-10T02:07:51.471Z,101539.66
2022-11-10T02:10:23.986Z,101551.13
2022-11-10T02:12:56.599Z,101542.25
2022-11-10T02:15:29.136Z,101546.72
2022-11-10T02:18:01.702Z,101557.31
2022-11-10T02:20:35.252Z,101563.47
2022-11-10T02:23:35.756Z,101554.66
2022-11-10T02:26:08.471Z,101568.75
2022-11-10T02:28:40.961Z,101570.50
2022-11-10T02:31:13.655Z,101575.78
2022-11-10T02:33:46.802Z,101565.22
2022-11-10T02:36:19.355Z,101579.31
2022-11-10T02:38:51.912Z,101592.50
2022-11-10T02:41:24.475Z,101594.28
2022-11-10T02:43:58.537Z,101599.56
2022-11-10T02:46:31.061Z,101605.72
2022-11-10T02:49:03.830Z,101601.34
2022-11-10T02:51:36.346Z,101615.44
2022-11-10T02:54:08.845Z,101616.28
2022-11-10T02:56:41.357Z,101617.19
2022-11-10T02:59:13.878Z,101604.84
2022-11-10T03:01:46.434Z,101603.94
2022-11-10T03:04:18.931Z,101597.81
2022-11-10T03:06:51.435Z,101605.75
2022-11-10T03:09:24.080Z,101600.47
2022-11-10T03:11:56.746Z,101608.38
2022-11-10T03:14:29.259Z,101619.81
2022-11-10T03:17:01.735Z,101622.47
2022-11-10T03:19:34.337Z,101626.00
2022-11-10T03:22:06.832Z,101627.75
2022-11-10T03:24:39.298Z,101626.00
2022-11-10T03:27:11.750Z,101629.50
2022-11-10T03:29:44.273Z,101628.63
2022-11-10T03:32:16.757Z,101643.63
2022-11-10T03:34:49.224Z,101648.88
2022-11-10T03:37:21.931Z,101645.34
2022-11-10T03:39:54.422Z,101655.91
2022-11-10T03:42:26.887Z,101665.59
2022-11-10T03:44:59.434Z,101658.53
2022-11-10T03:47:31.896Z,101671.72
2022-11-10T03:50:05.977Z,101669.13
2022-11-10T03:52:40.436Z,101677.00
2022-11-10T03:55:17.609Z,101675.25
2022-11-10T03:57:50.113Z,101673.47
2022-11-10T04:00:23.374Z,101685.78
2022-11-10T04:02:55.943Z,101687.53
2022-11-10T04:05:47.027Z,101684.91
2022-11-10T04:08:38.532Z,101684.91
2022-11-10T04:11:11.020Z,101689.31
2022-11-10T04:14:01.966Z,101695.44
2022-11-10T04:16:34.458Z,101704.25
2022-11-10T04:19:06.975Z,101707.75
2022-11-10T04:21:39.453Z,101712.16
2022-11-10T04:24:12.301Z,101707.78
2022-11-10T04:26:47.374Z,101718.31
2022-11-10T04:29:20.317Z,101714.78
2022-11-10T04:31:52.813Z,101722.75
2022-11-10T04:34:25.277Z,101718.28
2022-11-10T04:36:57.873Z,101726.22
2022-11-10T04:39:30.346Z,101736.81
2022-11-10T04:42:03.181Z,101732.38
2022-11-10T04:44:35.882Z,101733.25
2022-11-10T04:47:11.795Z,101744.72
2022-11-10T04:49:44.843Z,101746.47
2022-11-10T04:52:17.312Z,101739.41
2022-11-10T04:54:49.826Z,101756.16
2022-11-10T04:57:22.317Z,101758.81
2022-11-10T04:59:54.836Z,101766.69
2022-11-10T05:02:27.293Z,101764.97
2022-11-10T05:04:59.813Z,101767.59
2022-11-10T05:07:32.304Z,101770.25
2022-11-10T05:10:05.323Z,101770.22
2022-11-10T05:12:37.886Z,101772.88
2022-11-10T05:15:11.387Z,101792.22
2022-11-10T05:17:48.310Z,101784.31
2022-11-10T05:20:24.279Z,101788.69
2022-11-10T05:23:15.476Z,101788.66
2022-11-10T05:25:48.084Z,101788.63
2022-11-10T05:28:20.658Z,101801.78
2022-11-10T05:30:53.161Z,101789.53
2022-11-10T05:33:25.898Z,101798.28
2022-11-10T05:35:58.592Z,101781.59
2022-11-10T05:38:31.372Z,101778.94
2022-11-10T05:41:03.902Z,101771.00
2022-11-10T05:43:36.471Z,101773.63
2022-11-10T05:46:08.992Z,101766.63
2022-11-10T05:48:41.494Z,101787.66
2022-11-10T05:51:13.958Z,101802.56
2022-11-10T05:53:46.466Z,101800.88
2022-11-10T05:56:18.960Z,101812.28
2022-11-10T05:58:51.471Z,101814.06
2022-11-10T06:01:23.932Z,101806.19
2022-11-10T06:03:56.469Z,101807.91
2022-11-10T06:06:29.201Z,101807.91
2022-11-10T06:09:01.777Z,101814.03
2022-11-10T06:11:34.284Z,101828.13
2022-11-10T06:14:06.736Z,101833.41
2022-11-10T06:16:39.236Z,101834.28
2022-11-10T06:19:11.927Z,101840.44
2022-11-10T06:21:44.378Z,101837.81
2022-11-10T06:24:16.845Z,101838.72
2022-11-10T06:26:49.301Z,101841.28
2022-11-10T06:29:26.637Z,101833.31
2022-11-10T06:31:59.594Z,101840.38
2022-11-10T06:34:32.140Z,101848.34
2022-11-10T06:37:04.620Z,101852.69
2022-11-10T06:39:37.108Z,101864.09
2022-11-10T06:42:09.592Z,101871.16
2022-11-10T06:44:42.114Z,101874.69
2022-11-10T06:47:16.260Z,101873.78
2022-11-10T06:49:48.716Z,101880.78
2022-11-10T06:52:21.495Z,101888.72
2022-11-10T06:54:53.935Z,101885.19
2022-11-10T06:57:26.778Z,101895.81
2022-11-10T06:59:59.253Z,101890.56
2022-11-10T07:02:31.700Z,101894.06
2022-11-10T07:05:04.506Z,101905.44
2022-11-10T07:07:37.100Z,101900.16
2022-11-10T07:10:09.869Z,101907.25
2022-11-10T07:12:42.314Z,101910.78
2022-11-10T07:15:14.889Z,101909.00
2022-11-10T07:17:47.382Z,101924.84
2022-11-10T07:20:19.933Z,101924.88
2022-11-10T07:23:01.408Z,101930.19
2022-11-10T07:25:36.996Z,101939.00
2022-11-10T07:28:12.689Z,101933.66
2022-11-10T07:30:45.583Z,101952.25
2022-11-10T07:33:18.072Z,101961.09
2022-11-10T07:35:57.253Z,101966.38
2022-11-10T07:38:30.004Z,101960.22
2022-11-10T07:41:02.468Z,101964.66
2022-11-10T07:43:34.915Z,101959.38
2022-11-10T07:46:07.401Z,101969.97
2022-11-10T07:48:39.918Z,101975.19
2022-11-10T07:51:12.405Z,101964.75
2022-11-10T07:53:44.886Z,101970.06
2022-11-10T07:56:17.429Z,101968.31
2022-11-10T07:58:49.894Z,101965.66
2022-11-10T08:01:22.494Z,101970.97
2022-11-10T08:03:54.985Z,101978.09
2022-11-10T08:06:29.304Z,101983.38
2022-11-10T08:09:03.620Z,101975.50
2022-11-10T08:11:36.081Z,101987.00
2022-11-10T08:14:08.598Z,101999.31
2022-11-10T08:16:41.052Z,102006.34
2022-11-10T08:19:13.643Z,102011.72
2022-11-10T08:21:46.828Z,102022.34
2022-11-10T08:24:19.413Z,102012.63
2022-11-10T08:26:51.987Z,102019.69
2022-11-10T08:29:24.499Z,102007.41
2022-11-10T08:31:56.990Z,102024.16
2022-11-10T08:34:29.573Z,102015.38
2022-11-10T08:37:02.034Z,102027.75
2022-11-10T08:39:39.273Z,102021.56
2022-11-10T08:42:12.076Z,102028.66
2022-11-10T08:44:44.555Z,102026.91
2022-11-10T08:47:17.053Z,102023.41
2022-11-10T08:49:49.592Z,102034.88
2022-11-10T08:52:22.067Z,102029.56
2022-11-10T08:54:54.602Z,102037.53
2022-11-10T08:57:27.071Z,102034.00
2022-11-10T08:59:59.577Z,102046.38
2022-11-10T09:02:32.074Z,102043.72
2022-11-10T09:05:05.245Z,102048.13
2022-11-10T09:07:49.168Z,102050.78
2022-11-10T09:10:21.874Z,102047.22
2022-11-10T09:12:54.346Z,102049.88
2022-11-10T09:15:28.080Z,102064.88
2022-11-10T09:18:02.890Z,102063.97
2022-11-10T09:20:37.373Z,102065.75
2022-11-10T09:23:15.181Z,102072.75
2022-11-10T09:25:54.490Z,102078.06
2022-11-10T09:28:26.992Z,102072.75
2022-11-10T09:30:59.571Z,102061.28
2022-11-10T09:33:32.057Z,102071.00
2022-11-10T09:36:04.676Z,102065.63
2022-11-10T09:38:37.189Z,102070.00
2022-11-10T09:41:14.966Z,102065.53
2022-11-10T09:44:22.068Z,102071.69
2022-11-10T09:47:12.357Z,102074.28
2022-11-10T09:49:58.824Z,102081.31
2022-11-10T09:52:36.690Z,102075.03
2022-11-10T09:55:36.444Z,102079.44
2022-11-10T09:58:12.921Z,102084.72
2022-11-10T10:01:03.690Z,102076.63
2022-11-10T10:03:46.546Z,102070.59
2022-11-10T10:06:21.890Z,102075.69
2022-11-10T10:09:36.392Z,102073.78
2022-11-10T10:12:26.876Z,102078.09
2022-11-10T10:15:47.880Z,102084.41
2022-11-10T10:18:54.999Z,102089.53
2022-11-10T10:21:54.716Z,102092.13
2022-11-10T10:24:30.127Z,102099.28
2022-11-10T10:27:10.363Z,102099.22
2022-11-10T10:29:49.260Z,102103.47
2022-11-10T10:32:22.551Z,102106.00
2022-11-10T10:34:57.157Z,102113.09
2022-11-10T10:37:46.285Z,102111.38
2022-11-10T10:40:24.697Z,102116.63
2022-11-10T10:42:59.649Z,102127.28
2022-11-10T10:45:32.390Z,102139.56
2022-11-10T10:48:28.805Z,102150.03
2022-11-10T10:51:01.437Z,102155.38
2022-11-10T10:53:47.600Z,102151.69
2022-11-10T10:56:33.179Z,102151.63
2022-11-10T10:59:20.335Z,102141.84
2022-11-10T11:01:57.343Z,102155.84
2022-11-10T11:04:35.473Z,102148.84
2022-11-10T11:07:28.180Z,102142.53
2022-11-10T11:10:01.744Z,102149.72
2022-11-10T11:12:34.320Z,102134.41
2022-11-10T11:15:26.718Z,102129.88
2022-11-10T11:18:02.740Z,102134.25
2022-11-10T11:20:46.527Z,102146.81
2022-11-10T11:23:24.891Z,102148.44
2022-11-10T11:26:20.432Z,102142.00
2022-11-10T11:29:37.861Z,102148.25
2022-11-10T11:32:49.922Z,102131.28
2022-11-10T11:35:56.837Z,102137.13
2022-11-10T11:38:47.022Z,102155.44
2022-11-10T11:41:40.064Z,102168.44
2022-11-10T11:44:46.901Z,102170.47
2022-11-10T11:47:45.698Z,102172.19
2022-11-10T11:50:38.066Z,102172.06
2022-11-10T11:53:56.219Z,102168.50
2022-11-10T11:56:35.638Z,102180.16
2022-11-10T11:59:38.926Z,102180.44
2022-11-10T12:02:37.208Z,102186.78
2022-11-10T12:05:36.670Z,102191.94
2022-11-10T12:08:29.500Z,102182.13
2022-11-10T12:11:04.948Z,102201.81
2022-11-10T12:13:47.318Z,102202.47
2022-11-10T12:16:24.564Z,102213.16
2022-11-10T12:19:32.278Z,102195.50
2022-11-10T12:22:18.316Z,102201.72
2022-11-10T12:25:26.401Z,102200.84
2022-11-10T12:28:23.942Z,102201.59
2022-11-10T12:31:02.377Z,102212.31
2022-11-10T12:33:56.289Z,102198.31
2022-11-10T12:36:32.148Z,102212.13
2022-11-10T12:39:27.788Z,102210.50
2022-11-10T12:42:04.500Z,102206.00
2022-11-10T12:45:02.543Z,102191.03
2022-11-10T12:47:46.714Z,102205.91
2022-11-10T12:50:46.678Z,102207.63
2022-11-10T12:53:38.242Z,102211.28
2022-11-10T12:56:34.271Z,102200.53
2022-11-10T12:59:22.043Z,102205.72
2022-11-10T13:02:04.786Z,102200.19
2022-11-10T13:04:37.493Z,102206.44
2022-11-10T13:07:13.715Z,102201.91
2022-11-10T13:09:46.540Z,102199.06
2022-11-10T13:12:24.311Z,102210.34
2022-11-10T13:14:56.841Z,102213.91
2022-11-10T13:17:29.316Z,102205.78
2022-11-10T13:20:30.207Z,102209.22
2022-11-10T13:22:54.697Z,102204.09
2022-11-10T13:25:39.082Z,102218.59
2022-11-10T13:28:11.867Z,102216.63
2022-11-10T13:30:48.583Z,102224.59
2022-11-10T13:33:23.889Z,102222.69
2022-11-10T13:35:57.960Z,102227.19
2022-11-10T13:38:37.791Z,102228.88
2022-11-10T13:41:25.179Z,102235.25
2022-11-10T13:43:58.127Z,102230.66
2022-11-10T13:46:55.428Z,102231.38
2022-11-10T13:49:35.928Z,102228.44
2022-11-10T13:52:31.170Z,102218.94
2022-11-10T13:56:12.433Z,102211.13
2022-11-10T13:58:45.577Z,102207.28
2022-11-10T14:01:18.515Z,102204.56
2022-11-10T14:04:00.273Z,102210.13
2022-11-10T14:06:45.292Z,102216.22
2022-11-10T14:09:42.957Z,102207.59
2022-11-10T14:12:28.248Z,102209.31
2022-11-10T14:15:06.363Z,102207.53
2022-11-10T14:17:50.303Z,102214.81
2022-11-10T14:20:45.731Z,102214.53
2022-11-10T14:23:48.598Z,102219.88
2022-11-10T14:26:57.140Z,102225.41
2022-11-10T14:29:40.629Z,102236.91
2022-11-10T14:32:21.887Z,102228.03
2022-11-10T14:34:56.154Z,102222.78
2022-11-10T14:37:30.374Z,102201.72
2022-11-10T14:40:15.804Z,102206.19
2022-11-10T14:42:48.354Z,102199.09
2022-11-10T14:45:25.124Z,102209.53
2022-11-10T14:48:00.301Z,102208.81
2022-11-10T14:50:35.457Z,102218.44
2022-11-10T14:53:18.136Z,102221.72
2022-11-10T14:55:54.902Z,102232.34
2022-11-10T14:58:43.766Z,102228.75
2022-11-10T15:01:34.558Z,102233.31
2022-11-10T15:04:12.114Z,102245.16
2022-11-10T15:06:49.115Z,102242.59
2022-11-10T15:09:29.537Z,102243.63
2022-11-10T15:12:20.477Z,102242.84
2022-11-10T15:14:59.529Z,102244.59
2022-11-10T15:17:50.781Z,102227.81
2022-11-10T15:21:01.800Z,102242.22
2022-11-10T15:23:39.186Z,102236.25
2022-11-10T15:26:21.201Z,102243.28
2022-11-10T15:28:54.460Z,102237.13
2022-11-10T15:31:33.311Z,102243.34
2022-11-10T15:34:05.819Z,102255.03
2022-11-10T15:36:41.825Z,102257.72
2022-11-10T15:39:20.140Z,102267.56
2022-11-10T15:41:58.352Z,102268.69
2022-11-10T15:44:30.797Z,102266.88
2022-11-10T15:47:03.315Z,102280.25
2022-11-10T15:49:38.322Z,102280.34
2022-11-10T15:52:21.889Z,102280.47
2022-11-10T15:54:54.392Z,102271.78
2022-11-10T15:57:26.869Z,102273.53
2022-11-10T15:59:59.426Z,102271.03
2022-11-10T16:02:31.977Z,102279.81
2022-11-10T16:05:12.072Z,102271.94
2022-11-10T16:07:44.589Z,102270.22
2022-11-10T16:10:17.225Z,102279.94
2022-11-10T16:12:49.790Z,102279.97
2022-11-10T16:15:22.436Z,102292.38
2022-11-10T16:17:55.479Z,102290.63
2022-11-10T16:20:28.054Z,102272.00
2022-11-10T16:23:00.515Z,102280.03
2022-11-10T16:25:34.511Z,102283.56
2022-11-10T16:28:07.382Z,102285.28
2022-11-10T16:30:39.949Z,102280.00
2022-11-10T16:33:15.193Z,102283.56
2022-11-10T16:35:53.807Z,102282.69
2022-11-10T16:38:30.201Z,102299.50
2022-11-10T16:41:11.209Z,102311.03
2022-11-10T16:43:43.774Z,102316.34
2022-11-10T16:46:24.307Z,102313.69
2022-11-10T16:49:00.643Z,102319.03
2022-11-10T16:51:47.245Z,102319.06
2022-11-10T16:54:21.256Z,102319.94
2022-11-10T16:56:53.778Z,102330.59
2022-11-10T16:59:26.257Z,102320.91
2022-11-10T17:01:58.937Z,102332.41
2022-11-10T17:04:31.412Z,102330.63
2022-11-10T17:07:08.257Z,102338.63
2022-11-10T17:09:40.945Z,102331.53
2022-11-10T17:12:14.783Z,102335.06
2022-11-10T17:14:47.418Z,102335.94
2022-11-10T17:17:20.751Z,102341.25
2022-11-10T17:19:53.441Z,102346.59
2022-11-10T17:22:33.448Z,102345.75
2022-11-10T17:25:13.183Z,102342.22
2022-11-10T17:27:45.756Z,102347.53
2022-11-10T17:30:19.237Z,102353.75
2022-11-10T17:33:08.995Z,102361.69
2022-11-10T17:35:53.100Z,102370.56
2022-11-10T17:38:29.600Z,102372.31
2022-11-10T17:41:02.084Z,102359.06
2022-11-10T17:43:34.567Z,102358.19
2022-11-10T17:46:07.082Z,102373.19
2022-11-10T17:48:39.693Z,102357.28
2022-11-10T17:51:19.767Z,102359.94
2022-11-10T17:53:53.425Z,102361.69
2022-11-10T17:56:25.908Z,102358.16
2022-11-10T17:58:58.550Z,102367.00
2022-11-10T18:01:31.092Z,102370.53
2022-11-10T18:04:03.659Z,102374.97
2022-11-10T18:06:36.197Z,102378.50
2022-11-10T18:09:08.907Z,102382.06
2022-11-10T18:11:41.399Z,102390.00
2022-11-10T18:14:13.918Z,102384.69
2022-11-10T18:16:46.510Z,102392.66
2022-11-10T18:19:19.298Z,102389.09
2022-11-10T18:21:51.757Z,102387.34
2022-11-10T18:24:24.215Z,102397.94
2022-11-10T18:26:56.895Z,102397.06
2022-11-10T18:29:29.492Z,102402.38
2022-11-10T18:32:03.352Z,102402.34
2022-11-10T18:34:35.828Z,102402.31
2022-11-10T18:37:08.384Z,102404.97
2022-11-10T18:39:41.019Z,102412.03
2022-11-10T18:42:13.656Z,102417.34
2022-11-10T18:44:46.201Z,102404.00
2022-11-10T18:47:19.532Z,102415.50
2022-11-10T18:49:51.987Z,102414.63
2022-11-10T18:52:24.486Z,102408.47
2022-11-10T18:54:56.975Z,102412.91
2022-11-10T18:57:29.536Z,102410.19
2022-11-10T19:00:04.991Z,102405.69
2022-11-10T19:02:37.566Z,102413.66
2022-11-10T19:05:10.129Z,102410.13
2022-11-10T19:07:42.805Z,102402.19
2022-11-10T19:10:15.513Z,102405.66
2022-11-10T19:12:48.034Z,102402.97
2022-11-10T19:15:20.516Z,102407.38
2022-11-10T19:17:53.016Z,102412.66
2022-11-10T19:20:25.481Z,102402.06
2022-11-10T19:22:57.982Z,102399.47
2022-11-10T19:25:30.859Z,102402.00
2022-11-10T19:28:04.638Z,102402.06
2022-11-10T19:30:38.809Z,102398.50
2022-11-10T19:33:11.290Z,102410.88
2022-11-10T19:35:43.736Z,102409.97
2022-11-10T19:38:16.432Z,102409.94
2022-11-10T19:40:48.978Z,102414.41
2022-11-10T19:43:21.882Z,102430.31
2022-11-10T19:45:54.650Z,102436.41
2022-11-10T19:48:27.174Z,102432.81
2022-11-10T19:51:02.809Z,102433.69
2022-11-10T19:53:35.339Z,102436.25
2022-11-10T19:56:17.144Z,102442.50
2022-11-10T19:58:50.794Z,102439.88
2022-11-10T20:01:23.842Z,102450.41
2022-11-10T20:03:56.425Z,102463.63
2022-11-10T20:06:28.941Z,102458.38
2022-11-10T20:09:01.664Z,102456.59
2022-11-10T20:11:34.359Z,102468.03
2022-11-10T20:14:06.908Z,102470.66
2022-11-10T20:16:39.509Z,102471.53
2022-11-10T20:19:12.021Z,102477.75
2022-11-10T20:21:44.608Z,102478.56
2022-11-10T20:24:17.420Z,102467.09
2022-11-10T20:26:50.326Z,102463.47
2022-11-10T20:29:22.876Z,102462.53
2022-11-10T20:31:55.420Z,102464.41
2022-11-10T20:34:28.366Z,102477.69
2022-11-10T20:37:00.949Z,102473.09
2022-11-10T20:39:33.542Z,102475.75
2022-11-10T20:42:06.109Z,102482.78
2022-11-10T20:44:38.910Z,102489.78
2022-11-10T20:47:11.538Z,102490.69
2022-11-10T20:49:44.099Z,102503.03
2022-11-10T20:52:16.949Z,102494.22
2022-11-10T20:54:49.611Z,102488.06
2022-11-10T20:57:22.156Z,102488.94
2022-11-10T20:59:54.759Z,102481.72
2022-11-10T21:02:27.300Z,102479.16
2022-11-10T21:04:59.965Z,102470.28
2022-11-10T21:07:32.466Z,102468.50
2022-11-10T21:10:05.831Z,102465.75
2022-11-10T21:12:50.559Z,102456.16
2022-11-10T21:15:23.196Z,102477.31
2022-11-10T21:17:55.890Z,102469.28
2022-11-10T21:20:28.400Z,102468.47
2022-11-10T21:23:03.606Z,102464.06
2022-11-10T21:25:36.436Z,102475.44
2022-11-10T21:28:09.725Z,102476.34
2022-11-10T21:30:42.327Z,102486.00
2022-11-10T21:33:15.061Z,102483.38
2022-11-10T21:35:47.538Z,102483.28
2022-11-10T21:38:20.159Z,102487.78
2022-11-10T21:40:52.977Z,102477.88
2022-11-10T21:43:25.709Z,102484.97
2022-11-10T21:46:01.597Z,102487.69
2022-11-10T21:48:35.499Z,102494.66
2022-11-10T21:51:09.050Z,102500.94
2022-11-10T21:53:42.320Z,102508.78
2022-11-10T21:56:14.838Z,102506.03
2022-11-10T21:58:47.352Z,102500.81
2022-11-10T22:01:20.567Z,102494.56
2022-11-10T22:03:53.148Z,102501.66
2022-11-10T22:06:45.648Z,102500.75
2022-11-10T22:09:38.366Z,102509.47
2022-11-10T22:12:31.554Z,102518.25
2022-11-10T22:15:24.862Z,102525.41
2022-11-10T22:18:16.238Z,102530.50
2022-11-10T22:20:48.904Z,102535.88
2022-11-10T22:23:41.363Z,102527.09
2022-11-10T22:26:13.967Z,102532.50
2022-11-10T22:28:46.555Z,102534.09
2022-11-10T22:31:19.198Z,102537.75
2022-11-10T22:33:51.729Z,102537.78
2022-11-10T22:36:24.357Z,102553.59
2022-11-10T22:39:01.966Z,102540.22
2022-11-10T22:41:54.989Z,102541.09
2022-11-10T22:44:27.705Z,102550.13
2022-11-10T22:47:00.352Z,102565.09
2022-11-10T22:49:32.844Z,102559.63
2022-11-10T22:52:05.479Z,102572.84
2022-11-10T22:54:38.000Z,102571.97
2022-11-10T22:57:10.497Z,102577.19
2022-11-10T22:59:43.001Z,102577.81
2022-11-10T23:02:15.508Z,102573.59
2022-11-10T23:04:48.003Z,102581.41
2022-11-10T23:07:20.550Z,102584.06
2022-11-10T23:09:53.117Z,102581.31
2022-11-10T23:12:25.609Z,102576.94
2022-11-10T23:14:58.117Z,102581.31
2022-11-10T23:17:30.650Z,102585.63
2022-11-10T23:20:03.904Z,102590.81
2022-11-10T23:22:36.470Z,102596.97
2022-11-10T23:25:09.275Z,102597.88
2022-11-10T23:27:41.885Z,102592.44
2022-11-10T23:30:14.673Z,102597.72
2022-11-10T23:32:47.205Z,102593.25
2022-11-10T23:35:19.802Z,102580.06
2022-11-10T23:37:52.440Z,102588.88
2022-11-10T23:40:24.976Z,102582.69
2022-11-10T23:42:57.516Z,102589.91
2022-11-10T23:45:52.953Z,102601.44
2022-11-10T23:48:23.449Z,102600.41
2022-11-10T23:50:56.206Z,102607.63
2022-11-10T23:53:28.939Z,102608.59
2022-11-10T23:56:06.378Z,102611.53
2022-11-10T23:58:39.473Z,102614.22
